LEJR Airport Information

Runway Information
Runway 02 Length 7546 ft width 148 ft
Elevation 68 ft Threshold ft Heading 21
Runway 20 Length 7546 ft Width 148 ft
Elevation 93 ft Threshold ft Heading 201
Airport Frequencies
Type APP Name APP Frequency 128.5 MHZ
Type GND Name GND Frequency 121.6 MHZ
Type TWR Name TWR Frequency 118.55 MHZ
Airport Navaids
Type NDB Name Jerez Frequency 433 KHZ
Type VOR-DME Name Jerez Frequency 113000 KHZ
Airport Weather Information & NOTAM
ADDS - METARS form results

(2236 UTC 14 August 2022)
Data provider http://aviationweather.gov/metar/data/
 
METAR text: LEJR 142230Z AUTO 19007KT CAVOK 22/18 Q1013
Conditions at: LEJR (JEREZ (CIV/MIL) , ES) observed 2230 UTC 14 August 2022
Temperature: 22.0°C (72°F)
Dewpoint: 18.0°C (64°F) [RH = 78%]
Pressure (altimeter): 29.91 inches Hg (1013.0 mb)
Winds: from the S (190 degrees) at 8 MPH (7 knots; 3.6 m/s)
Visibility: 6 or more miles (10+ km)
Ceiling: ceiling and visibility are OK
Clouds: unknown
Weather: no significant weather observed at this time

METAR text: LEJR 142200Z AUTO 16005KT 120V200 CAVOK 22/17 Q1013
Conditions at: LEJR (JEREZ (CIV/MIL) , ES) observed 2200 UTC 14 August 2022
Temperature: 22.0°C (72°F)
Dewpoint: 17.0°C (63°F) [RH = 73%]
Pressure (altimeter): 29.91 inches Hg (1013.0 mb)
Winds: from the SSE (160 degrees) at 6 MPH (5 knots; 2.6 m/s)
Visibility: 6 or more miles (10+ km)
Ceiling: ceiling and visibility are OK
Clouds: unknown
Weather: no significant weather observed at this time

Forecast for: LEJR (JEREZ (CIV/MIL) , ES)
Text: TAF LEJR 142000Z 1421/1521 19010KT CAVOK TX28/1514Z TN19/1505Z
Forecast period: 2100 UTC 14 August 2022 to 0000 UTC 15 August 2022
Forecast type: FROM: standard forecast or significant change
Winds: from the S (190 degrees) at 12 MPH (10 knots; 5.1 m/s)
Visibility: 6 or more miles (10+ km)
Ceiling: unknown
Clouds: missing
Weather: no significant weather forecast for this period
Text: BECMG 1500/1502 26004KT
Forecast period: 0000 to 2100 UTC 15 August 2022
Forecast type: BECOMING: Conditions expected to become as follows by 0200 UTC 15 August 2022
Winds: from the W (260 degrees) at 5 MPH (4 knots; 2.1 m/s)
Visibility: 6 or more miles (10+ km)
Ceiling: unknown
Clouds: missing
Weather: no significant weather forecast for this period